Aviation Digital Data Service (ADDS)

Output produced by METARs form (1644 UTC 16 June 2019)
found at http://www.aviationweather.gov/metar/data/
 
METAR text: KSAN 161551Z 00000KT 10SM OVC013 18/15 A2991 RMK AO2 SLP129 T01830150
Conditions at: KSAN (SAN DIEGO , CA, US) observed 1551 UTC 16 June 2019
Temperature: 18.3°C (65°F)
Dewpoint: 15.0°C (59°F) [RH = 81%]
Pressure (altimeter): 29.91 inches Hg (1013.0 mb)
[Sea-level pressure: 1012.9 mb]
Winds: calm
Visibility: 10 or more miles (16+ km)
Ceiling: 1300 feet AGL
Clouds: overcast cloud deck at 1300 feet AGL
Weather: no significant weather observed at this time

METAR text: KSAN 161451Z 32004KT 10SM OVC013 18/14 A2991 RMK AO2 SLP127 T01830144 51007
Conditions at: KSAN (SAN DIEGO , CA, US) observed 1451 UTC 16 June 2019
Temperature: 18.3°C (65°F)
Dewpoint: 14.4°C (58°F) [RH = 78%]
Pressure (altimeter): 29.91 inches Hg (1013.0 mb)
[Sea-level pressure: 1012.7 mb]
Winds: from the NW (320 degrees) at 5 MPH (4 knots; 2.1 m/s)
Visibility: 10 or more miles (16+ km)
Ceiling: 1300 feet AGL
Clouds: overcast cloud deck at 1300 feet AGL
Weather: no significant weather observed at this time

METAR text: KSAN 161351Z 00000KT 10SM OVC014 18/14 A2990 RMK AO2 SLP125 T01830144
Conditions at: KSAN (SAN DIEGO , CA, US) observed 1351 UTC 16 June 2019
Temperature: 18.3°C (65°F)
Dewpoint: 14.4°C (58°F) [RH = 78%]
Pressure (altimeter): 29.90 inches Hg (1012.6 mb)
[Sea-level pressure: 1012.5 mb]
Winds: calm
Visibility: 10 or more miles (16+ km)
Ceiling: 1400 feet AGL
Clouds: overcast cloud deck at 1400 feet AGL
Weather: no significant weather observed at this time

METAR text: KSAN 161318Z 33004KT 10SM OVC014 18/14 A2990 RMK AO2 T01830144
Conditions at: KSAN (SAN DIEGO , CA, US) observed 1318 UTC 16 June 2019
Temperature: 18.3°C (65°F)
Dewpoint: 14.4°C (58°F) [RH = 78%]
Pressure (altimeter): 29.90 inches Hg (1012.6 mb)
Winds: from the NNW (330 degrees) at 5 MPH (4 knots; 2.1 m/s)
Visibility: 10 or more miles (16+ km)
Ceiling: 1400 feet AGL
Clouds: overcast cloud deck at 1400 feet AGL
Weather: no significant weather observed at this time

METAR text: KSAN 161251Z 29006KT 10SM OVC015 18/14 A2990 RMK AO2 SLP124 T01830144
Conditions at: KSAN (SAN DIEGO , CA, US) observed 1251 UTC 16 June 2019
Temperature: 18.3°C (65°F)
Dewpoint: 14.4°C (58°F) [RH = 78%]
Pressure (altimeter): 29.90 inches Hg (1012.6 mb)
[Sea-level pressure: 1012.4 mb]
Winds: from the WNW (290 degrees) at 7 MPH (6 knots; 3.1 m/s)
Visibility: 10 or more miles (16+ km)
Ceiling: 1500 feet AGL
Clouds: overcast cloud deck at 1500 feet AGL
Weather: no significant weather observed at this time

METAR text: KSAN 161151Z 29006KT 10SM OVC015 18/14 A2989 RMK AO2 SLP120 T01830144 10183 20178 55006
Conditions at: KSAN (SAN DIEGO , CA, US) observed 1151 UTC 16 June 2019
Temperature: 18.3°C (65°F)
Dewpoint: 14.4°C (58°F) [RH = 78%]
Pressure (altimeter): 29.89 inches Hg (1012.3 mb)
[Sea-level pressure: 1012.0 mb]
Winds: from the WNW (290 degrees) at 7 MPH (6 knots; 3.1 m/s)
Visibility: 10 or more miles (16+ km)
Ceiling: 1500 feet AGL
Clouds: overcast cloud deck at 1500 feet AGL
Weather: no significant weather observed at this time

METAR text: KSAN 161051Z 35003KT 10SM OVC016 18/14 A2989 RMK AO2 SLP120 T01830144
Conditions at: KSAN (SAN DIEGO , CA, US) observed 1051 UTC 16 June 2019
Temperature: 18.3°C (65°F)
Dewpoint: 14.4°C (58°F) [RH = 78%]
Pressure (altimeter): 29.89 inches Hg (1012.3 mb)
[Sea-level pressure: 1012.0 mb]
Winds: from the N (350 degrees) at 3 MPH (3 knots; 1.5 m/s)
Visibility: 10 or more miles (16+ km)
Ceiling: 1600 feet AGL
Clouds: overcast cloud deck at 1600 feet AGL
Weather: no significant weather observed at this time

METAR text: KSAN 160951Z 30004KT 10SM OVC016 18/14 A2990 RMK AO2 SLP124 T01830144
Conditions at: KSAN (SAN DIEGO , CA, US) observed 0951 UTC 16 June 2019
Temperature: 18.3°C (65°F)
Dewpoint: 14.4°C (58°F) [RH = 78%]
Pressure (altimeter): 29.90 inches Hg (1012.6 mb)
[Sea-level pressure: 1012.4 mb]
Winds: from the WNW (300 degrees) at 5 MPH (4 knots; 2.1 m/s)
Visibility: 10 or more miles (16+ km)
Ceiling: 1600 feet AGL
Clouds: overcast cloud deck at 1600 feet AGL
Weather: no significant weather observed at this time

METAR text: KSAN 160851Z 30003KT 10SM OVC016 18/14 A2990 RMK AO2 SLP126 T01830144 58016
Conditions at: KSAN (SAN DIEGO , CA, US) observed 0851 UTC 16 June 2019
Temperature: 18.3°C (65°F)
Dewpoint: 14.4°C (58°F) [RH = 78%]
Pressure (altimeter): 29.90 inches Hg (1012.6 mb)
[Sea-level pressure: 1012.6 mb]
Winds: from the WNW (300 degrees) at 3 MPH (3 knots; 1.5 m/s)
Visibility: 10 or more miles (16+ km)
Ceiling: 1600 feet AGL
Clouds: overcast cloud deck at 1600 feet AGL
Weather: no significant weather observed at this time

METAR text: KSAN 160751Z 27004KT 10SM OVC016 18/14 A2992 RMK AO2 SLP132 T01830139 402110178
Conditions at: KSAN (SAN DIEGO , CA, US) observed 0751 UTC 16 June 2019
Temperature: 18.3°C (65°F)
Dewpoint: 13.9°C (57°F) [RH = 76%]
Pressure (altimeter): 29.92 inches Hg (1013.3 mb)
[Sea-level pressure: 1013.2 mb]
Winds: from the W (270 degrees) at 5 MPH (4 knots; 2.1 m/s)
Visibility: 10 or more miles (16+ km)
Ceiling: 1600 feet AGL
Clouds: overcast cloud deck at 1600 feet AGL
Weather: no significant weather observed at this time

METAR text: KSAN 160651Z 22004KT 10SM OVC016 18/14 A2994 RMK AO2 SLP137 T01830139
Conditions at: KSAN (SAN DIEGO , CA, US) observed 0651 UTC 16 June 2019
Temperature: 18.3°C (65°F)
Dewpoint: 13.9°C (57°F) [RH = 76%]
Pressure (altimeter): 29.94 inches Hg (1014.0 mb)
[Sea-level pressure: 1013.7 mb]
Winds: from the SW (220 degrees) at 5 MPH (4 knots; 2.1 m/s)
Visibility: 10 or more miles (16+ km)
Ceiling: 1600 feet AGL
Clouds: overcast cloud deck at 1600 feet AGL
Weather: no significant weather observed at this time

METAR text: KSAN 160551Z 23004KT 10SM OVC016 18/14 A2995 RMK AO2 SLP141 T01830139 10194 20178 50004
Conditions at: KSAN (SAN DIEGO , CA, US) observed 0551 UTC 16 June 2019
Temperature: 18.3°C (65°F)
Dewpoint: 13.9°C (57°F) [RH = 76%]
Pressure (altimeter): 29.95 inches Hg (1014.3 mb)
[Sea-level pressure: 1014.1 mb]
Winds: from the SW (230 degrees) at 5 MPH (4 knots; 2.1 m/s)
Visibility: 10 or more miles (16+ km)
Ceiling: 1600 feet AGL
Clouds: overcast cloud deck at 1600 feet AGL
Weather: no significant weather observed at this time

METAR text: KSAN 160451Z 23005KT 10SM OVC016 18/14 A2995 RMK AO2 SLP142 T01830139
Conditions at: KSAN (SAN DIEGO , CA, US) observed 0451 UTC 16 June 2019
Temperature: 18.3°C (65°F)
Dewpoint: 13.9°C (57°F) [RH = 76%]
Pressure (altimeter): 29.95 inches Hg (1014.3 mb)
[Sea-level pressure: 1014.2 mb]
Winds: from the SW (230 degrees) at 6 MPH (5 knots; 2.6 m/s)
Visibility: 10 or more miles (16+ km)
Ceiling: 1600 feet AGL
Clouds: overcast cloud deck at 1600 feet AGL
Weather: no significant weather observed at this time

METAR text: KSAN 160351Z 22006KT 10SM OVC017 18/14 A2994 RMK AO2 SLP138 T01830139
Conditions at: KSAN (SAN DIEGO , CA, US) observed 0351 UTC 16 June 2019
Temperature: 18.3°C (65°F)
Dewpoint: 13.9°C (57°F) [RH = 76%]
Pressure (altimeter): 29.94 inches Hg (1014.0 mb)
[Sea-level pressure: 1013.8 mb]
Winds: from the SW (220 degrees) at 7 MPH (6 knots; 3.1 m/s)
Visibility: 10 or more miles (16+ km)
Ceiling: 1700 feet AGL
Clouds: overcast cloud deck at 1700 feet AGL
Weather: no significant weather observed at this time

METAR text: KSAN 160251Z 24006KT 10SM OVC018 18/14 A2994 RMK AO2 SLP137 T01830139 55001
Conditions at: KSAN (SAN DIEGO , CA, US) observed 0251 UTC 16 June 2019
Temperature: 18.3°C (65°F)
Dewpoint: 13.9°C (57°F) [RH = 76%]
Pressure (altimeter): 29.94 inches Hg (1014.0 mb)
[Sea-level pressure: 1013.7 mb]
Winds: from the WSW (240 degrees) at 7 MPH (6 knots; 3.1 m/s)
Visibility: 10 or more miles (16+ km)
Ceiling: 1800 feet AGL
Clouds: overcast cloud deck at 1800 feet AGL
Weather: no significant weather observed at this time

METAR text: KSAN 160151Z 19007KT 10SM OVC019 18/13 A2994 RMK AO2 SLP136 T01830133
Conditions at: KSAN (SAN DIEGO , CA, US) observed 0151 UTC 16 June 2019
Temperature: 18.3°C (65°F)
Dewpoint: 13.3°C (56°F) [RH = 73%]
Pressure (altimeter): 29.94 inches Hg (1014.0 mb)
[Sea-level pressure: 1013.6 mb]
Winds: from the S (190 degrees) at 8 MPH (7 knots; 3.6 m/s)
Visibility: 10 or more miles (16+ km)
Ceiling: 1900 feet AGL
Clouds: overcast cloud deck at 1900 feet AGL
Weather: no significant weather observed at this time

METAR text: KSAN 160051Z 22005KT 10SM OVC019 19/13 A2993 RMK AO2 SLP136 T01890133
Conditions at: KSAN (SAN DIEGO , CA, US) observed 0051 UTC 16 June 2019
Temperature: 18.9°C (66°F)
Dewpoint: 13.3°C (56°F) [RH = 70%]
Pressure (altimeter): 29.93 inches Hg (1013.6 mb)
[Sea-level pressure: 1013.6 mb]
Winds: from the SW (220 degrees) at 6 MPH (5 knots; 2.6 m/s)
Visibility: 10 or more miles (16+ km)
Ceiling: 1900 feet AGL
Clouds: overcast cloud deck at 1900 feet AGL
Weather: no significant weather observed at this time

METAR text: KSAN 152351Z 21007KT 10SM BKN020 19/13 A2994 RMK AO2 SLP138 T01890133 10211 20189 58004
Conditions at: KSAN (SAN DIEGO , CA, US) observed 2351 UTC 15 June 2019
Temperature: 18.9°C (66°F)
Dewpoint: 13.3°C (56°F) [RH = 70%]
Pressure (altimeter): 29.94 inches Hg (1014.0 mb)
[Sea-level pressure: 1013.8 mb]
Winds: from the SSW (210 degrees) at 8 MPH (7 knots; 3.6 m/s)
Visibility: 10 or more miles (16+ km)
Ceiling: 2000 feet AGL
Clouds: broken clouds at 2000 feet AGL
Weather: no significant weather observed at this time

METAR text: KSAN 152251Z 23010KT 10SM BKN020 20/13 A2995 RMK AO2 SLP140 T02000133
Conditions at: KSAN (SAN DIEGO , CA, US) observed 2251 UTC 15 June 2019
Temperature: 20.0°C (68°F)
Dewpoint: 13.3°C (56°F) [RH = 65%]
Pressure (altimeter): 29.95 inches Hg (1014.3 mb)
[Sea-level pressure: 1014.0 mb]
Winds: from the SW (230 degrees) at 12 MPH (10 knots; 5.1 m/s)
Visibility: 10 or more miles (16+ km)
Ceiling: 2000 feet AGL
Clouds: broken clouds at 2000 feet AGL
Weather: no significant weather observed at this time

METAR text: KSAN 152151Z 26007KT 10SM BKN019 20/13 A2995 RMK AO2 SLP142 T02000133
Conditions at: KSAN (SAN DIEGO , CA, US) observed 2151 UTC 15 June 2019
Temperature: 20.0°C (68°F)
Dewpoint: 13.3°C (56°F) [RH = 65%]
Pressure (altimeter): 29.95 inches Hg (1014.3 mb)
[Sea-level pressure: 1014.2 mb]
Winds: from the W (260 degrees) at 8 MPH (7 knots; 3.6 m/s)
Visibility: 10 or more miles (16+ km)
Ceiling: 1900 feet AGL
Clouds: broken clouds at 1900 feet AGL
Weather: no significant weather observed at this time

METAR text: KSAN 152051Z 25008KT 10SM BKN019 21/13 A2995 RMK AO2 SLP142 T02060133 58006
Conditions at: KSAN (SAN DIEGO , CA, US) observed 2051 UTC 15 June 2019
Temperature: 20.6°C (69°F)
Dewpoint: 13.3°C (56°F) [RH = 63%]
Pressure (altimeter): 29.95 inches Hg (1014.3 mb)
[Sea-level pressure: 1014.2 mb]
Winds: from the WSW (250 degrees) at 9 MPH (8 knots; 4.1 m/s)
Visibility: 10 or more miles (16+ km)
Ceiling: 1900 feet AGL
Clouds: broken clouds at 1900 feet AGL
Weather: no significant weather observed at this time

METAR text: KSAN 151951Z 24008KT 10SM BKN021 21/13 A2996 RMK AO2 SLP143 T02060133
Conditions at: KSAN (SAN DIEGO , CA, US) observed 1951 UTC 15 June 2019
Temperature: 20.6°C (69°F)
Dewpoint: 13.3°C (56°F) [RH = 63%]
Pressure (altimeter): 29.96 inches Hg (1014.6 mb)
[Sea-level pressure: 1014.3 mb]
Winds: from the WSW (240 degrees) at 9 MPH (8 knots; 4.1 m/s)
Visibility: 10 or more miles (16+ km)
Ceiling: 2100 feet AGL
Clouds: broken clouds at 2100 feet AGL
Weather: no significant weather observed at this time

METAR text: KSAN 151851Z 23009KT 10SM BKN023 21/13 A2997 RMK AO2 SLP147 T02060133
Conditions at: KSAN (SAN DIEGO , CA, US) observed 1851 UTC 15 June 2019
Temperature: 20.6°C (69°F)
Dewpoint: 13.3°C (56°F) [RH = 63%]
Pressure (altimeter): 29.97 inches Hg (1015.0 mb)
[Sea-level pressure: 1014.7 mb]
Winds: from the SW (230 degrees) at 10 MPH (9 knots; 4.6 m/s)
Visibility: 10 or more miles (16+ km)
Ceiling: 2300 feet AGL
Clouds: broken clouds at 2300 feet AGL
Weather: no significant weather observed at this time

METAR text: KSAN 151751Z 22005KT 10SM BKN022 19/13 A2997 RMK AO2 SLP148 T01940133 10194 20178 58003
Conditions at: KSAN (SAN DIEGO , CA, US) observed 1751 UTC 15 June 2019
Temperature: 19.4°C (67°F)
Dewpoint: 13.3°C (56°F) [RH = 68%]
Pressure (altimeter): 29.97 inches Hg (1015.0 mb)
[Sea-level pressure: 1014.8 mb]
Winds: from the SW (220 degrees) at 6 MPH (5 knots; 2.6 m/s)
Visibility: 10 or more miles (16+ km)
Ceiling: 2200 feet AGL
Clouds: broken clouds at 2200 feet AGL
Weather: no significant weather observed at this time

METAR text: KSAN 151651Z 23005KT 10SM OVC019 18/14 A2998 RMK AO2 SLP150 T01830139
Conditions at: KSAN (SAN DIEGO , CA, US) observed 1651 UTC 15 June 2019
Temperature: 18.3°C (65°F)
Dewpoint: 13.9°C (57°F) [RH = 76%]
Pressure (altimeter): 29.98 inches Hg (1015.3 mb)
[Sea-level pressure: 1015.0 mb]
Winds: from the SW (230 degrees) at 6 MPH (5 knots; 2.6 m/s)
Visibility: 10 or more miles (16+ km)
Ceiling: 1900 feet AGL
Clouds: overcast cloud deck at 1900 feet AGL
Weather: no significant weather observed at this time

METAR text: KSAN 151551Z 23004KT 10SM OVC018 18/13 A2998 RMK AO2 SLP152 T01780133
Conditions at: KSAN (SAN DIEGO , CA, US) observed 1551 UTC 15 June 2019
Temperature: 17.8°C (64°F)
Dewpoint: 13.3°C (56°F) [RH = 75%]
Pressure (altimeter): 29.98 inches Hg (1015.3 mb)
[Sea-level pressure: 1015.2 mb]
Winds: from the SW (230 degrees) at 5 MPH (4 knots; 2.1 m/s)
Visibility: 10 or more miles (16+ km)
Ceiling: 1800 feet AGL
Clouds: overcast cloud deck at 1800 feet AGL
Weather: no significant weather observed at this time

METAR text: KSAN 151451Z VRB03KT 10SM OVC018 18/13 A2998 RMK AO2 SLP152 T01830133 53012
Conditions at: KSAN (SAN DIEGO , CA, US) observed 1451 UTC 15 June 2019
Temperature: 18.3°C (65°F)
Dewpoint: 13.3°C (56°F) [RH = 73%]
Pressure (altimeter): 29.98 inches Hg (1015.3 mb)
[Sea-level pressure: 1015.2 mb]
Winds: variable direction winds at 3 MPH (3 knots; 1.5 m/s)
Visibility: 10 or more miles (16+ km)
Ceiling: 1800 feet AGL
Clouds: overcast cloud deck at 1800 feet AGL
Weather: no significant weather observed at this time

METAR text: KSAN 151351Z 00000KT 10SM OVC019 18/13 A2997 RMK AO2 SLP147 T01830128
Conditions at: KSAN (SAN DIEGO , CA, US) observed 1351 UTC 15 June 2019
Temperature: 18.3°C (65°F)
Dewpoint: 12.8°C (55°F) [RH = 70%]
Pressure (altimeter): 29.97 inches Hg (1015.0 mb)
[Sea-level pressure: 1014.7 mb]
Winds: calm
Visibility: 10 or more miles (16+ km)
Ceiling: 1900 feet AGL
Clouds: overcast cloud deck at 1900 feet AGL
Weather: no significant weather observed at this time

METAR text: KSAN 151251Z 00000KT 10SM OVC018 18/13 A2995 RMK AO2 SLP142 T01780128
Conditions at: KSAN (SAN DIEGO , CA, US) observed 1251 UTC 15 June 2019
Temperature: 17.8°C (64°F)
Dewpoint: 12.8°C (55°F) [RH = 73%]
Pressure (altimeter): 29.95 inches Hg (1014.3 mb)
[Sea-level pressure: 1014.2 mb]
Winds: calm
Visibility: 10 or more miles (16+ km)
Ceiling: 1800 feet AGL
Clouds: overcast cloud deck at 1800 feet AGL
Weather: no significant weather observed at this time

METAR text: KSAN 151151Z 18006KT 10SM OVC019 18/13 A2994 RMK AO2 SLP139 T01780128 10183 20178 56002
Conditions at: KSAN (SAN DIEGO , CA, US) observed 1151 UTC 15 June 2019
Temperature: 17.8°C (64°F)
Dewpoint: 12.8°C (55°F) [RH = 73%]
Pressure (altimeter): 29.94 inches Hg (1014.0 mb)
[Sea-level pressure: 1013.9 mb]
Winds: from the S (180 degrees) at 7 MPH (6 knots; 3.1 m/s)
Visibility: 10 or more miles (16+ km)
Ceiling: 1900 feet AGL
Clouds: overcast cloud deck at 1900 feet AGL
Weather: no significant weather observed at this time

METAR text: KSAN 151051Z 20005KT 10SM OVC021 18/13 A2995 RMK AO2 SLP140 T01780128
Conditions at: KSAN (SAN DIEGO , CA, US) observed 1051 UTC 15 June 2019
Temperature: 17.8°C (64°F)
Dewpoint: 12.8°C (55°F) [RH = 73%]
Pressure (altimeter): 29.95 inches Hg (1014.3 mb)
[Sea-level pressure: 1014.0 mb]
Winds: from the SSW (200 degrees) at 6 MPH (5 knots; 2.6 m/s)
Visibility: 10 or more miles (16+ km)
Ceiling: 2100 feet AGL
Clouds: overcast cloud deck at 2100 feet AGL
Weather: no significant weather observed at this time

METAR text: KSAN 150951Z 17004KT 10SM OVC019 18/13 A2995 RMK AO2 SLP140 T01780133
Conditions at: KSAN (SAN DIEGO , CA, US) observed 0951 UTC 15 June 2019
Temperature: 17.8°C (64°F)
Dewpoint: 13.3°C (56°F) [RH = 75%]
Pressure (altimeter): 29.95 inches Hg (1014.3 mb)
[Sea-level pressure: 1014.0 mb]
Winds: from the S (170 degrees) at 5 MPH (4 knots; 2.1 m/s)
Visibility: 10 or more miles (16+ km)
Ceiling: 1900 feet AGL
Clouds: overcast cloud deck at 1900 feet AGL
Weather: no significant weather observed at this time

METAR text: KSAN 150851Z 21005KT 10SM OVC018 18/13 A2995 RMK AO2 SLP141 T01780133 56006
Conditions at: KSAN (SAN DIEGO , CA, US) observed 0851 UTC 15 June 2019
Temperature: 17.8°C (64°F)
Dewpoint: 13.3°C (56°F) [RH = 75%]
Pressure (altimeter): 29.95 inches Hg (1014.3 mb)
[Sea-level pressure: 1014.1 mb]
Winds: from the SSW (210 degrees) at 6 MPH (5 knots; 2.6 m/s)
Visibility: 10 or more miles (16+ km)
Ceiling: 1800 feet AGL
Clouds: overcast cloud deck at 1800 feet AGL
Weather: no significant weather observed at this time

METAR text: KSAN 150751Z 19004KT 10SM OVC018 18/13 A2995 RMK AO2 SLP143 T01830133 402110167
Conditions at: KSAN (SAN DIEGO , CA, US) observed 0751 UTC 15 June 2019
Temperature: 18.3°C (65°F)
Dewpoint: 13.3°C (56°F) [RH = 73%]
Pressure (altimeter): 29.95 inches Hg (1014.3 mb)
[Sea-level pressure: 1014.3 mb]
Winds: from the S (190 degrees) at 5 MPH (4 knots; 2.1 m/s)
Visibility: 10 or more miles (16+ km)
Ceiling: 1800 feet AGL
Clouds: overcast cloud deck at 1800 feet AGL
Weather: no significant weather observed at this time

METAR text: KSAN 150651Z 21004KT 10SM OVC017 18/14 A2996 RMK AO2 SLP143 T01830139
Conditions at: KSAN (SAN DIEGO , CA, US) observed 0651 UTC 15 June 2019
Temperature: 18.3°C (65°F)
Dewpoint: 13.9°C (57°F) [RH = 76%]
Pressure (altimeter): 29.96 inches Hg (1014.6 mb)
[Sea-level pressure: 1014.3 mb]
Winds: from the SSW (210 degrees) at 5 MPH (4 knots; 2.1 m/s)
Visibility: 10 or more miles (16+ km)
Ceiling: 1700 feet AGL
Clouds: overcast cloud deck at 1700 feet AGL
Weather: no significant weather observed at this time

METAR text: KSAN 150551Z 25003KT 10SM OVC018 18/14 A2997 RMK AO2 SLP147 T01830139 10200 20183 53005
Conditions at: KSAN (SAN DIEGO , CA, US) observed 0551 UTC 15 June 2019
Temperature: 18.3°C (65°F)
Dewpoint: 13.9°C (57°F) [RH = 76%]
Pressure (altimeter): 29.97 inches Hg (1015.0 mb)
[Sea-level pressure: 1014.7 mb]
Winds: from the WSW (250 degrees) at 3 MPH (3 knots; 1.5 m/s)
Visibility: 10 or more miles (16+ km)
Ceiling: 1800 feet AGL
Clouds: overcast cloud deck at 1800 feet AGL
Weather: no significant weather observed at this time

METAR text: KSAN 150451Z 24004KT 10SM BKN019 18/13 A2996 RMK AO2 SLP145 T01830133
Conditions at: KSAN (SAN DIEGO , CA, US) observed 0451 UTC 15 June 2019
Temperature: 18.3°C (65°F)
Dewpoint: 13.3°C (56°F) [RH = 73%]
Pressure (altimeter): 29.96 inches Hg (1014.6 mb)
[Sea-level pressure: 1014.5 mb]
Winds: from the WSW (240 degrees) at 5 MPH (4 knots; 2.1 m/s)
Visibility: 10 or more miles (16+ km)
Ceiling: 1900 feet AGL
Clouds: broken clouds at 1900 feet AGL
Weather: no significant weather observed at this time

Forecast for: KSAN (SAN DIEGO , CA, US)
Text: KSAN 161441Z 1615/1718 VRB04KT P6SM OVC014
Forecast period: 1500 to 1900 UTC 16 June 2019
Forecast type: FROM: standard forecast or significant change
Winds: variable direction winds at 5 MPH (4 knots; 2.1 m/s)
Visibility: 6 or more miles 10+ km)
Ceiling: 1400 feet AGL
Clouds: overcast cloud deck at 1400 feet AGL
Weather: no significant weather forecast for this period
Text: FM161900 27009KT P6SM BKN020
Forecast period: 1900 UTC 16 June 2019 to 0200 UTC 17 June 2019
Forecast type: FROM: standard forecast or significant change
Winds: from the W (270 degrees) at 10 MPH (9 knots; 4.6 m/s)
Visibility: 6 or more miles 10+ km)
Ceiling: 2000 feet AGL
Clouds: broken clouds at 2000 feet AGL
Weather: no significant weather forecast for this period
Text: FM170200 VRB04KT P6SM OVC015
Forecast period: 0200 to 1800 UTC 17 June 2019
Forecast type: FROM: standard forecast or significant change
Winds: variable direction winds at 5 MPH (4 knots; 2.1 m/s)
Visibility: 6 or more miles 10+ km)
Ceiling: 1500 feet AGL
Clouds: overcast cloud deck at 1500 feet AGL
Weather: no significant weather forecast for this period